createdAt,value
2022-09-10T00:05:48.562Z,14.39
2022-09-10T00:08:37.920Z,14.37
2022-09-10T00:12:22.589Z,14.37
2022-09-10T00:15:19.483Z,14.31
2022-09-10T00:18:06.447Z,14.29
2022-09-10T00:21:59.546Z,14.28
2022-09-10T00:25:08.547Z,14.26
2022-09-10T00:28:05.318Z,14.26
2022-09-10T00:46:42.695Z,14.19
2022-09-10T00:50:53.336Z,14.13
2022-09-10T00:54:13.695Z,14.11
2022-09-10T01:11:48.134Z,14.16
2022-09-10T01:16:04.662Z,14.13
2022-09-10T01:38:55.690Z,14.11
2022-09-10T01:55:30.993Z,14.13
2022-09-10T02:11:03.625Z,14.07
2022-09-10T02:14:18.974Z,14.04
2022-09-10T02:30:24.590Z,14.08
2022-09-10T02:33:47.219Z,14.08
2022-09-10T02:37:56.892Z,14.11
2022-09-10T03:01:25.171Z,14.18
2022-09-10T03:05:20.289Z,14.15
2022-09-10T03:08:39.165Z,14.17
2022-09-10T03:11:58.160Z,14.18
2022-09-10T03:29:57.806Z,14.16
2022-09-10T03:33:33.719Z,14.12
2022-09-10T03:48:45.532Z,14.15
2022-09-10T03:52:10.023Z,14.11
2022-09-10T04:03:58.531Z,14.13
2022-09-10T04:06:59.202Z,14.10
2022-09-10T04:10:50.678Z,14.11
2022-09-10T04:14:00.349Z,14.09
2022-09-10T04:33:13.208Z,14.07
2022-09-10T04:36:01.491Z,14.04
2022-09-10T04:39:23.806Z,14.03
2022-09-10T04:42:27.871Z,14.02
2022-09-10T04:45:50.834Z,14.02
2022-09-10T05:00:06.420Z,14.09
2022-09-10T05:03:44.343Z,14.07
2022-09-10T05:07:03.390Z,14.07
2022-09-10T06:14:54.290Z,13.47
2022-09-10T06:18:24.165Z,13.44
2022-09-10T06:21:35.797Z,13.42
2022-09-10T06:24:58.078Z,13.43
2022-09-10T06:31:19.764Z,13.46
2022-09-10T07:03:41.159Z,13.78
2022-09-10T07:06:50.963Z,13.80
2022-09-10T07:10:01.458Z,13.82
2022-09-10T07:13:05.610Z,13.82
2022-09-10T07:16:59.157Z,13.85
2022-09-10T07:20:31.257Z,13.87
2022-09-10T07:46:51.316Z,14.10
2022-09-10T07:50:00.053Z,14.13
2022-09-10T07:53:32.783Z,14.16
2022-09-10T07:57:16.517Z,14.18
2022-09-10T08:00:29.565Z,14.19
2022-09-10T08:03:45.787Z,14.22
2022-09-10T08:27:15.982Z,14.33
2022-09-10T08:30:35.788Z,14.30
2022-09-10T08:33:58.100Z,14.29
2022-09-10T08:37:02.141Z,14.30
2022-09-10T08:39:48.118Z,14.31
2022-09-10T08:43:17.452Z,14.29
2022-09-10T09:04:35.147Z,14.36
2022-09-10T09:08:04.409Z,14.35
2022-09-10T09:11:39.750Z,14.36
2022-09-10T09:15:19.905Z,14.40
2022-09-10T09:22:21.315Z,14.43
2022-09-10T09:25:50.542Z,14.41
2022-09-10T09:29:43.700Z,14.43
2022-09-10T09:33:00.418Z,14.42
2022-09-10T09:36:03.175Z,14.46
2022-09-10T09:38:53.166Z,14.51
2022-09-10T09:41:57.838Z,14.57
2022-09-10T10:03:28.844Z,15.12
2022-09-10T10:07:12.451Z,15.22
2022-09-10T10:28:12.917Z,15.57
2022-09-10T10:31:56.258Z,15.61
2022-09-10T10:35:42.422Z,15.65
2022-09-10T10:54:14.406Z,15.78
2022-09-10T10:58:21.250Z,15.80
2022-09-10T11:01:46.225Z,15.83
2022-09-10T11:05:37.991Z,15.88
2022-09-10T11:17:55.391Z,15.92
2022-09-10T11:22:12.942Z,15.87
2022-09-10T11:38:20.810Z,15.87
2022-09-10T11:42:22.433Z,15.82
2022-09-10T12:01:47.571Z,16.48
2022-09-10T12:05:53.870Z,16.42
2022-09-10T12:22:31.100Z,16.21
2022-09-10T12:26:19.781Z,16.16
2022-09-10T12:30:34.703Z,16.14
2022-09-10T12:42:06.477Z,16.37
2022-09-10T12:45:43.375Z,16.29
2022-09-10T12:49:40.003Z,16.29
2022-09-10T13:06:09.468Z,16.80
2022-09-10T13:10:24.788Z,16.92
2022-09-10T13:20:55.164Z,16.96
2022-09-10T13:25:13.876Z,16.93
2022-09-10T13:46:30.236Z,16.37
2022-09-10T13:50:28.367Z,16.28
2022-09-10T14:02:39.202Z,16.37
2022-09-10T14:06:32.533Z,16.47
2022-09-10T14:09:27.312Z,16.54
2022-09-10T14:12:51.146Z,16.51
2022-09-10T14:16:21.625Z,16.50
2022-09-10T14:40:57.717Z,16.63
2022-09-10T14:44:53.375Z,16.66
2022-09-10T14:48:34.790Z,16.70
2022-09-10T14:51:16.892Z,16.71
2022-09-10T15:05:30.524Z,16.73
2022-09-10T15:09:19.912Z,16.70
2022-09-10T15:13:11.039Z,16.70
2022-09-10T15:37:15.440Z,16.44
2022-09-10T15:40:09.055Z,16.39
2022-09-10T15:43:42.031Z,16.35
2022-09-10T15:47:21.244Z,16.34
2022-09-10T15:50:15.872Z,16.33
2022-09-10T15:53:55.141Z,16.31
2022-09-10T15:57:19.446Z,16.29
2022-09-10T16:00:40.983Z,16.26
2022-09-10T16:11:46.149Z,16.22
2022-09-10T16:14:54.017Z,16.19
2022-09-10T16:17:36.523Z,16.16
2022-09-10T16:20:12.226Z,16.14
2022-09-10T16:23:47.992Z,16.12
2022-09-10T16:27:07.070Z,16.10
2022-09-10T16:29:59.273Z,16.07
2022-09-10T16:33:12.086Z,16.02
2022-09-10T16:37:12.099Z,15.99
2022-09-10T16:40:54.970Z,15.90
2022-09-10T16:44:17.322Z,15.81
2022-09-10T16:47:30.233Z,15.77
2022-09-10T16:50:34.536Z,15.72
2022-09-10T17:08:35.747Z,15.03
2022-09-10T17:12:25.214Z,14.61
2022-09-10T17:15:36.365Z,14.38
2022-09-10T17:31:14.480Z,13.55
2022-09-10T17:34:28.069Z,13.29
2022-09-10T17:37:35.483Z,13.18
2022-09-10T17:48:49.461Z,13.04
2022-09-10T17:52:38.617Z,12.97
2022-09-10T17:55:34.780Z,12.92
2022-09-10T17:58:12.311Z,12.87
2022-09-10T18:01:31.527Z,12.82
2022-09-10T18:04:49.950Z,12.76
2022-09-10T18:27:07.552Z,12.53
2022-09-10T18:30:49.919Z,12.48
2022-09-10T18:45:06.481Z,12.38
2022-09-10T18:48:11.587Z,12.33
2022-09-10T18:51:34.605Z,12.30
2022-09-10T18:54:49.109Z,12.28
2022-09-10T18:58:15.478Z,12.21
2022-09-10T19:02:06.986Z,12.15
2022-09-10T19:17:08.921Z,12.00
2022-09-10T19:35:23.982Z,11.87
2022-09-10T19:39:15.666Z,11.84
2022-09-10T19:43:06.880Z,11.82
2022-09-10T19:46:16.356Z,11.81
2022-09-10T19:49:09.618Z,11.80
2022-09-10T19:52:49.821Z,11.78
2022-09-10T20:07:47.863Z,11.74
2022-09-10T20:11:29.445Z,11.69
2022-09-10T20:14:29.005Z,11.69
2022-09-10T20:25:45.409Z,11.73
2022-09-10T20:28:59.675Z,11.71
2022-09-10T20:32:59.196Z,11.73
2022-09-10T20:36:22.746Z,11.75
2022-09-10T20:39:48.520Z,11.77
2022-09-10T20:54:55.941Z,11.81
2022-09-10T21:10:21.008Z,11.75
2022-09-10T21:14:16.797Z,11.73
2022-09-10T21:17:13.274Z,11.74
2022-09-10T21:20:15.090Z,11.75
2022-09-10T21:34:38.352Z,11.85
2022-09-10T21:38:30.116Z,11.83
2022-09-10T21:52:37.374Z,11.89
2022-09-10T21:56:07.004Z,11.87
2022-09-10T22:07:35.665Z,11.96
2022-09-10T22:11:13.845Z,11.94
2022-09-10T22:15:25.058Z,11.94
2022-09-10T22:29:18.718Z,12.02
2022-09-10T22:32:47.940Z,12.01
2022-09-10T22:36:21.334Z,12.01
2022-09-10T22:39:38.581Z,12.01
2022-09-10T23:03:39.480Z,12.02
2022-09-10T23:07:04.483Z,11.99
2022-09-10T23:10:18.161Z,11.98
2022-09-10T23:28:08.188Z,11.99
2022-09-10T23:58:21.552Z,11.97
